Aérodrome :
LOGIN :

S'inscrire | Disclaimer

   EN    FR    IT 

 










Légende :    VFR   VFR Marginal   IFR   IFR Intensif   IFR Très Intensif
Visi : 
Plafond : 
>= 8 km
>= 3000ft
5 à 8 km
1000 à 3000 ft
1500m à 5 km
500 à 1000 ft
800 à 1500m
200 à 500 ft
< 800m
< 200 ft
Symboles :   Orages  Brouillard  Fortes neiges  Fortes précipitations  Vent > 20 kt
SIGMETs :   Divers  Orages  Givrage  Turbulence  Onde Orograph.  Cendres Volcan.






- Altitude de l'aérodrome : 72 ft
- Code IATA : UDE


EHVK - Volkel Airbase

DERNIER METAR :
  • 162325Z AUTO 22002KT 9999 FEW063 SCT070 BKN079 14/12 Q1008 BLU

METARs EXPIRÉS :
  • 162255Z AUTO 19005KT 9999 BKN069 OVC130 15/12 Q1008 BLU
  • 162225Z AUTO 18005KT 150V210 9999 BKN068 OVC083 15/13 Q1008 BLU
  • 162155Z AUTO 18005KT 9999 OVC067 15/13 Q1008 BLU
  • 162125Z AUTO 17004KT 9999 OVC150 14/12 Q1007 BLU
  • 162055Z AUTO 15003KT 9999 FEW082 14/13 Q1007 RERA BLU
  • 162036Z AUTO 15003KT 9999 SHRA FEW049 14/13 Q1007 BLU
  • 162025Z AUTO 15003KT 9999 SHRA FEW180 14/12 Q1007 BLU
  • 162021Z AUTO 16003KT 9999 -RA SCT170 14/12 Q1007 BLU
  • 161955Z AUTO 19003KT 160V220 9999 FEW048 SCT054 BKN170 16/13 Q1007 BLU
  • 161925Z AUTO 19004KT 150V220 9999 BKN084 BKN250 16/13 Q1007 BLU
  • 161855Z AUTO 19005KT 160V230 9999 FEW046 OVC280 17/13 Q1006 BLU
  • 161825Z AUTO 20007KT 170V230 9999 OVC280 17/12 Q1006 BLU

TAF TAF EHVK
Valide du 16 à 21h jusqu'au 17 à 09h UTC


162039Z 1621/1709 19006KT 9999 FEW025 SCT030
PROB30
TEMPO 1701/1706 SCT025CB BKN030
TEMPO 1703/1707 4000 BR FEW005 BKN007
BECMG 1706/1708 SCT014 BKN018
BECMG 1708/1709 SCT022 BKN030



MET'MAP, la Météo Aéronautique d'un coup d'oeil ! - Copyright ORBIFLY Décembre 2007 - Disclaimer

ORBIFLY MET'MAP TEAM :

Programmation & Développement : Alexandra Zaïnal
Sur une idée originale de : Baudouin d'Aumeries
Soutien technique & logistique : Manuel Goepfert
Assistance : Marc-Olivier Méhu




SOURCES & CREDITS :

   NOAA